Time;durP1;ratioP1;P1;durP2;ratioP2;P2;SDS_P1;SDS_P2;PMS_P1;PMS_P2;Temp;Humidity;BMP_temperature;BMP_pressure;BME280_temperature;BME280_humidity;BME280_pressure;Samples;Min_cycle;Max_cycle;Signal;HPM_P1;HPM_P2
2022/05/24 00:00:43;;;;;;;7.20;5.18;;;;;;;17.24;100.00;99572.75;10273332;28;20065;-64
2022/05/24 00:05:40;;;;;;;9.75;5.90;;;;;;;17.27;100.00;99569.25;10259357;28;20454;-63
2022/05/24 00:10:36;;;;;;;7.90;5.50;;;;;;;17.26;100.00;99573.16;10265890;28;20064;-65
2022/05/24 00:15:33;;;;;;;8.95;5.90;;;;;;;17.24;100.00;99570.00;10264765;28;20096;-64
2022/05/24 00:20:34;;;;;;;7.72;5.60;;;;;;;17.24;100.00;99564.47;10269139;28;20573;-64
2022/05/24 00:25:34;;;;;;;10.60;6.03;;;;;;;17.24;100.00;99565.28;10267236;28;20561;-67
2022/05/24 00:30:31;;;;;;;8.23;5.65;;;;;;;17.23;100.00;99579.50;10270048;28;20075;-65
2022/05/24 00:35:28;;;;;;;9.00;4.57;;;;;;;17.26;100.00;99584.22;10268155;28;20052;-65
2022/05/24 00:40:59;;;;;;;8.20;4.25;;;;;;;17.24;100.00;99583.81;10266420;28;20113;-65
2022/05/24 00:46:01;;;;;;;12.20;4.82;;;;;;;17.21;100.00;99581.84;10254590;28;20216;-67
2022/05/24 00:51:00;;;;;;;7.03;4.57;;;;;;;17.19;100.00;99584.19;10277736;28;20090;-63
2022/05/24 00:56:05;;;;;;;7.93;4.97;;;;;;;17.15;100.00;99588.91;10252752;28;20072;-64
2022/05/24 01:01:11;;;;;;;11.00;5.13;;;;;;;17.14;100.00;99592.88;10278685;28;20469;-63
2022/05/24 01:06:07;;;;;;;8.95;5.32;;;;;;;17.14;100.00;99588.13;10257244;28;20102;-63
2022/05/24 01:11:04;;;;;;;8.27;5.55;;;;;;;17.11;100.00;99591.69;10278562;28;20041;-65
2022/05/24 01:16:00;;;;;;;8.85;5.72;;;;;;;17.09;100.00;99596.03;10275232;28;20044;-66
2022/05/24 01:21:03;;;;;;;6.22;5.53;;;;;;;17.08;100.00;99595.22;10278182;28;20091;-66
2022/05/24 01:26:08;;;;;;;;;;;;;;;17.08;100.00;99599.94;10269139;28;20042;-66
2022/05/24 01:31:05;;;;;;;10.88;7.72;;;;;;;17.04;100.00;99608.22;10238861;28;19925;-65
2022/05/24 01:36:12;;;;;;;10.00;6.60;;;;;;;17.02;100.00;99611.38;10267848;28;20068;-66
2022/05/24 01:41:13;;;;;;;9.00;6.68;;;;;;;17.03;100.00;99624.00;10261404;28;20450;-67
2022/05/24 01:46:13;;;;;;;11.52;7.45;;;;;;;17.03;100.00;99635.06;10267519;28;20136;-68
2022/05/24 01:51:12;;;;;;;10.52;7.53;;;;;;;17.08;100.00;99649.66;10277251;28;20824;-63
2022/05/24 01:56:14;;;;;;;10.38;8.80;;;;;;;16.90;100.00;99660.63;10266185;28;20136;-65
2022/05/24 02:01:16;;;;;;;10.60;8.38;;;;;;;16.85;100.00;99681.13;10246814;28;20484;-67
2022/05/24 02:06:25;;;;;;;7.10;5.77;;;;;;;16.50;100.00;99687.94;10269058;28;20804;-67
2022/05/24 02:11:25;;;;;;;7.47;4.35;;;;;;;16.24;100.00;99707.44;10250657;28;20527;-64
2022/05/24 02:16:26;;;;;;;4.82;3.20;;;;;;;15.95;100.00;99734.72;10250628;28;20152;-66
2022/05/24 02:21:22;;;;;;;7.28;3.03;;;;;;;15.58;100.00;99749.25;10276163;28;20136;-67
2022/05/24 02:26:21;;;;;;;6.05;3.92;;;;;;;15.67;100.00;99735.97;10265689;28;20090;-64
2022/05/24 02:31:19;;;;;;;8.45;5.38;;;;;;;15.48;100.00;99744.38;10275357;28;20481;-66
2022/05/24 02:36:18;;;;;;;10.00;5.63;;;;;;;15.47;100.00;99749.09;10265513;28;20052;-65
2022/05/24 02:41:31;;;;;;;7.35;4.50;;;;;;;15.48;100.00;99758.97;10274938;28;20057;-65
2022/05/24 02:46:30;;;;;;;7.80;5.70;;;;;;;15.50;100.00;99766.84;10262516;28;20045;-64
2022/05/24 02:51:27;;;;;;;11.40;7.18;;;;;;;15.66;100.00;99775.69;10250603;28;20585;-66
2022/05/24 02:56:24;;;;;;;12.90;8.30;;;;;;;15.63;100.00;99773.72;10264182;28;20044;-64
2022/05/24 03:01:27;;;;;;;11.20;8.23;;;;;;;15.53;100.00;99780.69;10271157;28;20049;-65
2022/05/24 03:06:25;;;;;;;13.55;8.23;;;;;;;15.56;100.00;99784.63;10264074;28;20041;-66
2022/05/24 03:11:21;;;;;;;14.60;10.55;;;;;;;15.26;100.00;99790.94;10269816;28;20160;-66
2022/05/24 03:16:19;;;;;;;18.08;12.10;;;;;;;15.20;100.00;99803.44;10263033;28;20076;-63
2022/05/24 03:21:15;;;;;;;15.75;11.50;;;;;;;15.24;100.00;99818.03;10266036;28;20041;-65
2022/05/24 03:26:14;;;;;;;13.80;8.70;;;;;;;15.24;100.00;99818.03;10264508;28;20128;-63
2022/05/24 03:31:11;;;;;;;14.52;9.55;;;;;;;15.18;100.00;99819.53;10266483;28;20048;-64
2022/05/24 03:36:08;;;;;;;15.60;9.20;;;;;;;15.26;100.00;99821.22;10267675;28;20243;-65
2022/05/24 03:41:05;;;;;;;12.50;9.13;;;;;;;15.22;100.00;99842.41;10268173;28;20072;-65
2022/05/24 03:46:05;;;;;;;15.18;9.10;;;;;;;15.16;100.00;99846.66;10261279;28;20119;-66
2022/05/24 03:51:02;;;;;;;15.32;9.65;;;;;;;15.30;100.00;99866.13;10247580;28;20041;-66
2022/05/24 03:55:58;;;;;;;12.63;9.40;;;;;;;15.18;100.00;99857.28;10263615;28;20094;-66
2022/05/24 04:00:56;;;;;;;15.30;9.75;;;;;;;15.18;100.00;99869.09;10254692;28;20459;-66
2022/05/24 04:05:52;;;;;;;14.90;8.60;;;;;;;15.17;100.00;99878.50;10256819;28;20099;-66
2022/05/24 04:10:49;;;;;;;9.98;6.90;;;;;;;15.28;100.00;99876.72;10255711;28;20053;-66
2022/05/24 04:15:45;;;;;;;12.38;6.93;;;;;;;15.22;100.00;99894.72;10257340;28;20111;-66
2022/05/24 04:20:42;;;;;;;10.73;6.20;;;;;;;15.25;100.00;99891.25;10250904;28;20087;-66
2022/05/24 04:25:38;;;;;;;10.57;6.20;;;;;;;15.28;100.00;99918.03;10259239;28;20072;-66
2022/05/24 04:30:35;;;;;;;8.68;5.13;;;;;;;15.25;100.00;99918.00;10251612;28;20112;-65
2022/05/24 04:35:32;;;;;;;6.93;4.93;;;;;;;15.20;100.00;99921.84;10255556;28;20103;-65
2022/05/24 04:45:44;;;;;;;8.55;4.35;;;;;;;15.33;100.00;99908.66;10266932;28;20072;-66
2022/05/24 04:50:40;;;;;;;10.50;4.80;;;;;;;15.23;100.00;99901.84;10272826;28;20086;-66
2022/05/24 04:55:37;;;;;;;6.45;4.10;;;;;;;15.25;100.00;99951.81;10261924;28;20102;-65
2022/05/24 05:00:33;;;;;;;11.18;4.60;;;;;;;14.86;100.00;99946.44;10267165;28;20127;-65
2022/05/24 05:05:31;;;;;;;8.55;3.65;;;;;;;15.02;100.00;99948.28;10269825;28;20053;-65
2022/05/24 05:10:27;;;;;;;7.90;3.80;;;;;;;15.07;100.00;99950.72;10268325;28;20080;-66
2022/05/24 05:15:24;;;;;;;8.32;3.78;;;;;;;15.06;100.00;99966.47;10246488;28;20131;-66
2022/05/24 05:20:20;;;;;;;6.10;3.30;;;;;;;14.96;100.00;99960.75;10266122;28;20045;-65
2022/05/24 05:25:17;;;;;;;8.82;3.55;;;;;;;14.92;100.00;99961.50;10258951;28;20468;-65
2022/05/24 05:35:29;;;;;;;6.22;3.20;;;;;;;15.22;100.00;99947.03;10267894;28;20042;-65
2022/05/24 05:40:25;;;;;;;7.22;3.60;;;;;;;15.27;100.00;99949.50;10274090;28;20404;-65
2022/05/24 05:45:22;;;;;;;7.22;3.38;;;;;;;15.34;100.00;99960.63;10262016;28;20091;-65
2022/05/24 05:50:20;;;;;;;6.13;3.83;;;;;;;15.43;100.00;99967.84;10257950;28;20072;-65
2022/05/24 05:55:19;;;;;;;8.65;5.00;;;;;;;15.30;100.00;99970.78;10269678;28;20140;-66
2022/05/24 06:00:16;;;;;;;6.85;3.72;;;;;;;15.42;100.00;99977.28;10271836;28;20148;-67
2022/05/24 06:05:12;;;;;;;9.05;4.13;;;;;;;15.49;100.00;99971.88;10267880;28;20373;-67
2022/05/24 06:10:11;;;;;;;5.63;3.50;;;;;;;15.33;100.00;99975.56;10270837;28;20148;-68
2022/05/24 06:15:08;;;;;;;6.55;3.20;;;;;;;15.44;100.00;99988.72;10265876;28;20442;-68
2022/05/24 06:20:07;;;;;;;8.75;3.70;;;;;;;15.61;100.00;100001.97;10274303;28;20052;-67
2022/05/24 06:25:04;;;;;;;6.28;3.60;;;;;;;15.53;100.00;100003.03;10267024;28;20486;-67
2022/05/24 06:30:03;;;;;;;7.38;3.92;;;;;;;15.61;100.00;100013.00;10269953;28;20053;-67
2022/05/24 06:35:00;;;;;;;7.53;4.57;;;;;;;15.56;100.00;100027.09;10252938;28;20083;-68
2022/05/24 06:39:56;;;;;;;6.88;4.18;;;;;;;15.45;100.00;100031.63;10268714;28;20080;-66
2022/05/24 06:44:53;;;;;;;7.65;4.80;;;;;;;15.59;100.00;100031.84;10272340;28;20502;-66
2022/05/24 06:49:49;;;;;;;11.32;4.85;;;;;;;15.81;100.00;100033.03;10263563;28;20509;-67
2022/05/24 06:54:46;;;;;;;5.72;4.25;;;;;;;15.91;100.00;100037.91;10270263;28;20424;-67
2022/05/24 07:05:03;;;;;;;8.23;5.63;;;;;;;15.89;100.00;100033.94;10253435;28;20041;-67
2022/05/24 07:10:01;;;;;;;8.43;5.13;;;;;;;15.93;100.00;100056.84;10271733;28;20087;-67
2022/05/24 07:14:58;;;;;;;8.48;5.13;;;;;;;15.98;100.00;100056.53;10270998;28;20041;-67
2022/05/24 07:19:55;;;;;;;7.57;5.45;;;;;;;16.14;100.00;100062.69;10251332;28;20480;-67
2022/05/24 07:24:52;;;;;;;9.63;5.55;;;;;;;16.24;100.00;100063.22;10266537;28;20753;-66
2022/05/24 07:29:50;;;;;;;9.43;6.38;;;;;;;16.45;100.00;100055.22;10252441;28;20045;-68
2022/05/24 07:34:46;;;;;;;11.80;6.97;;;;;;;16.57;100.00;100056.97;10261603;28;20078;-67
2022/05/24 07:39:43;;;;;;;10.52;6.88;;;;;;;16.72;100.00;100063.47;10265598;28;20045;-67
2022/05/24 07:50:11;;;;;;;13.20;7.60;;;;;;;16.50;100.00;100082.53;10195243;28;20494;-66
2022/05/24 07:55:09;;;;;;;11.15;7.80;;;;;;;16.61;100.00;100091.72;10261983;28;20080;-67
2022/05/24 08:00:06;;;;;;;11.50;8.25;;;;;;;16.63;100.00;100100.41;10264331;28;20081;-67
2022/05/24 08:05:03;;;;;;;16.20;11.25;;;;;;;16.60;100.00;100116.94;10265570;28;20060;-66
2022/05/24 08:10:00;;;;;;;13.50;9.85;;;;;;;16.44;100.00;100119.88;10266548;28;20503;-67
2022/05/24 08:14:56;;;;;;;13.52;10.43;;;;;;;16.54;100.00;100113.69;10265173;28;20414;-67
2022/05/24 08:19:53;;;;;;;14.32;9.40;;;;;;;16.76;100.00;100111.25;10263813;28;20049;-65
2022/05/24 08:24:49;;;;;;;12.60;9.45;;;;;;;17.11;100.00;100112.88;10262432;28;20037;-66
2022/05/24 08:29:46;;;;;;;12.15;9.23;;;;;;;17.28;100.00;100122.53;10263981;28;20061;-66
2022/05/24 08:34:43;;;;;;;13.13;8.30;;;;;;;17.36;100.00;100136.06;10264996;28;20041;-66
2022/05/24 08:39:40;;;;;;;13.57;7.95;;;;;;;17.11;100.00;100135.78;10264997;28;20086;-66
2022/05/24 08:49:56;;;;;;;11.27;8.25;;;;;;;17.09;100.00;100138.13;10247674;28;20052;-67
2022/05/24 08:54:53;;;;;;;14.07;7.72;;;;;;;17.38;100.00;100125.44;10267805;28;20498;-67
2022/05/24 09:00:01;;;;;;;11.77;8.50;;;;;;;17.36;100.00;100136.06;10281049;28;20111;-67
2022/05/24 09:04:57;;;;;;;11.68;7.07;;;;;;;17.04;100.00;100147.53;10266757;28;20081;-66
2022/05/24 09:10:30;;;;;;;10.43;7.57;;;;;;;17.14;100.00;100131.47;10265511;28;20495;-68
2022/05/24 09:15:48;;;;;;;10.90;7.05;;;;;;;17.46;100.00;100124.31;10247983;28;20080;-67
2022/05/24 09:20:45;;;;;;;11.35;8.05;;;;;;;17.74;100.00;100123.00;10277344;28;20558;-66
2022/05/24 09:25:52;;;;;;;12.65;9.10;;;;;;;18.06;100.00;100117.00;10267196;28;20478;-67
2022/05/24 09:30:49;;;;;;;12.77;8.90;;;;;;;18.36;100.00;100136.19;10251032;28;20080;-68
2022/05/24 09:35:45;;;;;;;11.50;7.95;;;;;;;18.18;100.00;100138.81;10257793;28;20083;-66
2022/05/24 09:40:55;;;;;;;11.23;7.93;;;;;;;18.32;100.00;100137.34;10275974;28;20423;-68
2022/05/24 09:45:56;;;;;;;12.20;7.63;;;;;;;18.42;100.00;100144.91;10264852;28;20052;-68
2022/05/24 09:50:56;;;;;;;11.50;7.70;;;;;;;18.23;100.00;100155.06;10262154;28;20083;-68
2022/05/24 09:55:59;;;;;;;9.43;7.75;;;;;;;17.99;100.00;100172.28;10242833;28;20079;-67
2022/05/24 10:01:13;;;;;;;12.00;7.05;;;;;;;17.84;100.00;100163.81;10271014;28;20048;-67
2022/05/24 10:06:21;;;;;;;13.40;9.25;;;;;;;17.54;100.00;100190.72;10264939;28;20161;-67
2022/05/24 10:11:42;;;;;;;11.65;6.53;;;;;;;17.25;100.00;100184.88;10265417;28;20503;-67
2022/05/24 10:17:05;;;;;;;8.77;6.13;;;;;;;17.04;100.00;100205.53;10255137;28;20068;-68
2022/05/24 10:22:41;;;;;;;14.23;7.87;;;;;;;16.82;100.00;100217.44;10259049;28;20049;-68
2022/05/24 10:28:01;;;;;;;8.60;5.68;;;;;;;16.71;100.00;100210.94;10257176;28;20872;-68
2022/05/24 10:38:32;;;;;;;14.68;8.85;;;;;;;16.60;100.00;100236.41;10257934;28;20452;-67
2022/05/24 10:43:58;;;;;;;14.10;9.38;;;;;;;16.57;100.00;100223.38;10264028;28;20122;-67
2022/05/24 10:49:16;;;;;;;15.65;9.80;;;;;;;16.63;100.00;100219.09;10260795;28;20041;-67
2022/05/24 10:54:29;;;;;;;12.00;8.75;;;;;;;16.71;100.00;100238.53;10253125;28;20431;-66
2022/05/24 10:59:51;;;;;;;16.23;10.48;;;;;;;16.53;100.00;100250.09;10259671;28;20456;-65
2022/05/24 11:04:59;;;;;;;19.13;13.18;;;;;;;16.13;100.00;100259.66;10253154;28;20057;-65
2022/05/24 11:10:26;;;;;;;18.65;12.93;;;;;;;15.98;100.00;100268.84;10257895;28;20133;-66
2022/05/24 11:15:36;;;;;;;16.92;10.55;;;;;;;15.86;100.00;100282.78;10253163;28;20080;-66
2022/05/24 11:20:39;;;;;;;13.27;6.70;;;;;;;15.58;100.00;100294.81;10253000;28;20120;-66
2022/05/24 11:25:51;;;;;;;13.88;6.60;;;;;;;15.53;100.00;100314.38;10264656;28;20041;-66
2022/05/24 11:30:48;;;;;;;14.70;8.63;;;;;;;15.48;100.00;100304.44;10251112;28;20132;-66
2022/05/24 11:35:52;;;;;;;16.98;9.32;;;;;;;15.51;100.00;100305.69;10255092;28;20064;-66
2022/05/24 11:40:54;;;;;;;12.73;8.35;;;;;;;15.53;100.00;100308.88;10269521;28;20100;-66
2022/05/24 11:46:00;;;;;;;11.85;8.05;;;;;;;15.69;100.00;100306.84;10259699;28;20502;-66
2022/05/24 11:51:39;;;;;;;10.30;6.40;;;;;;;15.91;100.00;100319.13;10256269;28;20065;-66
2022/05/24 11:56:37;;;;;;;6.82;4.53;;;;;;;16.32;100.00;100349.06;10264097;28;20095;-65
2022/05/24 12:01:36;;;;;;;7.88;4.40;;;;;;;16.34;100.00;100346.75;10247133;28;20079;-66
2022/05/24 12:12:18;;;;;;;10.55;6.32;;;;;;;16.39;100.00;100382.31;10255851;28;20045;-65
2022/05/24 12:17:25;;;;;;;8.68;5.20;;;;;;;17.49;100.00;100379.00;10245960;28;20057;-68
2022/05/24 12:22:27;;;;;;;9.98;4.85;;;;;;;18.08;100.00;100374.69;10229430;28;20045;-68
2022/05/24 12:27:23;;;;;;;;;;;;;;;17.92;100.00;100374.88;10218333;28;20052;-67
2022/05/24 12:32:22;;;;;;;9.45;4.95;;;;;;;17.91;100.00;100364.97;10226560;28;19961;-67
2022/05/24 12:37:26;;;;;;;8.63;4.93;;;;;;;17.91;100.00;100369.72;10223340;28;20740;-68
2022/05/24 12:42:23;;;;;;;9.40;5.03;;;;;;;17.66;100.00;100375.69;10240378;28;20088;-68
2022/05/24 12:47:21;;;;;;;8.93;4.75;;;;;;;17.41;100.00;100365.09;10256534;28;20482;-67
2022/05/24 12:52:27;;;;;;;8.32;3.95;;;;;;;17.27;100.00;100364.06;10263370;28;20110;-67
2022/05/24 12:57:39;;;;;;;8.85;3.47;;;;;;;18.38;100.00;100363.56;10237838;28;20091;-67
2022/05/24 13:02:40;;;;;;;9.07;3.80;;;;;;;18.71;100.00;100373.75;10261983;28;20541;-67
2022/05/24 13:07:41;;;;;;;5.75;3.30;;;;;;;18.74;100.00;100371.41;10260312;28;20120;-69
2022/05/24 13:12:38;;;;;;;6.07;2.90;;;;;;;18.64;100.00;100372.91;10264052;28;20086;-68
2022/05/24 13:17:42;;;;;;;6.15;3.10;;;;;;;18.11;100.00;100365.63;10267447;28;20072;-73
2022/05/24 13:22:41;;;;;;;5.88;3.08;;;;;;;17.98;100.00;100389.16;10267327;28;20091;-68
2022/05/24 13:27:51;;;;;;;7.93;3.95;;;;;;;17.83;100.00;100375.16;10266012;28;20584;-70
2022/05/24 13:38:03;;;;;;;5.43;3.08;;;;;;;18.44;100.00;100377.84;10258924;28;20569;-68
2022/05/24 13:43:00;;;;;;;6.43;3.00;;;;;;;18.27;100.00;100399.41;10262393;28;20564;-69
2022/05/24 13:47:59;;;;;;;8.18;3.50;;;;;;;18.13;100.00;100404.00;10265899;28;20568;-68
2022/05/24 13:53:07;;;;;;;7.45;3.25;;;;;;;18.51;100.00;100398.09;10269720;28;20412;-67
2022/05/24 13:58:05;;;;;;;10.38;2.80;;;;;;;19.27;100.00;100398.78;10267282;28;20045;-67
2022/05/24 14:03:11;;;;;;;6.00;2.95;;;;;;;19.08;100.00;100397.84;10257167;28;20443;-68
2022/05/24 14:08:08;;;;;;;8.32;3.20;;;;;;;18.94;96.14;100397.75;10268638;28;20544;-68
2022/05/24 14:13:08;;;;;;;5.20;2.20;;;;;;;19.38;100.00;100396.06;10268037;28;20135;-69
2022/05/24 14:18:05;;;;;;;6.63;2.83;;;;;;;19.63;92.96;100399.00;10266263;28;20056;-68
2022/05/24 14:23:05;;;;;;;4.20;2.33;;;;;;;19.71;91.05;100400.69;10268448;28;20524;-68
2022/05/24 14:28:03;;;;;;;6.00;3.00;;;;;;;19.54;80.79;100408.50;10267957;28;20065;-67
2022/05/24 14:33:00;;;;;;;5.05;2.40;;;;;;;19.08;86.92;100414.47;10266231;28;20422;-67
2022/05/24 14:37:57;;;;;;;5.20;2.72;;;;;;;18.91;89.18;100415.94;10266995;28;20049;-68
2022/05/24 14:42:54;;;;;;;5.65;2.65;;;;;;;18.68;89.38;100418.84;10266312;28;20045;-68
2022/05/24 14:47:51;;;;;;;8.38;3.20;;;;;;;18.58;90.03;100433.34;10248419;28;20045;-68
2022/05/24 14:52:47;;;;;;;6.57;3.03;;;;;;;18.01;88.24;100452.03;10272907;28;20499;-68
2022/05/24 14:57:43;;;;;;;7.85;4.95;;;;;;;17.51;100.00;100484.47;10253318;28;20041;-68
2022/05/24 15:02:48;;;;;;;9.25;5.70;;;;;;;16.69;100.00;100511.41;10259939;28;20083;-66
2022/05/24 15:18:22;;;;;;;11.02;8.18;;;;;;;15.62;100.00;100516.13;10257294;28;20505;-67
2022/05/24 15:23:21;;;;;;;7.80;5.70;;;;;;;15.67;100.00;100529.66;10264507;28;20048;-67
2022/05/24 15:28:20;;;;;;;9.25;5.25;;;;;;;16.07;100.00;100531.38;10260728;28;20937;-67
2022/05/24 15:33:16;;;;;;;7.07;4.68;;;;;;;16.18;100.00;100534.41;10263789;28;20053;-67
2022/05/24 15:38:15;;;;;;;8.27;5.25;;;;;;;16.33;100.00;100538.25;10254644;28;20076;-67
2022/05/24 15:43:12;;;;;;;8.20;4.72;;;;;;;16.59;100.00;100552.22;10255404;28;20045;-67
2022/05/24 15:48:09;;;;;;;7.50;3.72;;;;;;;16.59;100.00;100559.69;10252168;28;20049;-67
2022/05/24 15:53:06;;;;;;;6.65;4.18;;;;;;;16.27;100.00;100547.97;10234634;28;20048;-67
2022/05/24 15:58:03;;;;;;;6.28;4.28;;;;;;;16.25;100.00;100544.78;10253244;28;20102;-66
2022/05/24 16:02:59;;;;;;;8.88;4.68;;;;;;;16.20;100.00;100559.66;10261976;28;20662;-67
2022/05/24 16:13:14;;;;;;;7.20;3.65;;;;;;;17.77;100.00;100564.66;10266706;28;20477;-67
2022/05/24 16:18:12;;;;;;;6.07;3.85;;;;;;;18.06;100.00;100576.22;10265488;28;20124;-68
2022/05/24 16:23:09;;;;;;;5.97;4.13;;;;;;;17.65;100.00;100584.22;10260996;28;20127;-68
2022/05/24 16:28:07;;;;;;;6.28;4.20;;;;;;;17.35;100.00;100604.22;10258772;28;20349;-66
2022/05/24 16:33:07;;;;;;;8.38;3.97;;;;;;;17.77;100.00;100597.84;10269409;28;20787;-67
2022/05/24 16:38:04;;;;;;;6.28;3.58;;;;;;;18.09;100.00;100600.38;10269949;28;20045;-66
2022/05/24 16:43:01;;;;;;;5.85;3.75;;;;;;;17.92;100.00;100598.13;10266786;28;20410;-66
2022/05/24 16:47:58;;;;;;;6.13;3.30;;;;;;;17.72;100.00;100589.88;10255701;28;20059;-65
2022/05/24 16:53:15;;;;;;;6.90;3.15;;;;;;;17.83;100.00;100596.41;10261488;28;20049;-67
2022/05/24 17:03:28;;;;;;;7.43;3.80;;;;;;;17.03;100.00;100621.00;10263730;28;20144;-66
2022/05/24 17:08:24;;;;;;;7.53;4.28;;;;;;;16.92;100.00;100625.50;10263938;28;20546;-66
2022/05/24 17:13:21;;;;;;;4.47;3.15;;;;;;;16.60;100.00;100647.66;10265720;28;20037;-66
2022/05/24 17:18:18;;;;;;;6.28;0.70;;;;;;;16.09;100.00;100669.72;10264861;28;20083;-66
2022/05/24 17:23:15;;;;;;;3.40;0.63;;;;;;;15.84;100.00;100676.56;10265523;28;20040;-66
2022/05/24 17:28:11;;;;;;;2.28;0.43;;;;;;;15.65;100.00;100689.03;10252055;28;21435;-66
2022/05/24 17:33:28;;;;;;;2.38;0.73;;;;;;;15.34;100.00;100693.34;10247092;28;20140;-65
2022/05/24 17:38:24;;;;;;;1.83;0.20;;;;;;;15.39;100.00;100696.97;10254411;28;20053;-66
2022/05/24 17:43:25;;;;;;;3.55;0.70;;;;;;;15.30;100.00;100703.44;10259128;28;20479;-65
2022/05/24 17:48:22;;;;;;;0.75;0.25;;;;;;;15.32;100.00;100706.66;10264273;28;20508;-66
2022/05/24 17:53:19;;;;;;;1.58;0.60;;;;;;;15.32;100.00;100714.91;10250309;28;20479;-66
2022/05/24 17:58:18;;;;;;;3.40;0.50;;;;;;;15.40;100.00;100720.63;10239112;28;20053;-66
2022/05/24 18:03:16;;;;;;;1.60;0.40;;;;;;;15.44;100.00;100721.53;10249654;28;20073;-66
2022/05/24 18:08:13;;;;;;;1.67;0.50;;;;;;;15.56;100.00;100721.47;10265673;28;20124;-66
2022/05/24 18:13:10;;;;;;;1.70;0.50;;;;;;;15.67;100.00;100730.03;10263913;28;20091;-66
2022/05/24 18:18:07;;;;;;;3.03;0.50;;;;;;;15.70;100.00;100730.16;10259169;28;20048;-67
2022/05/24 18:23:14;;;;;;;3.08;0.40;;;;;;;15.48;100.00;100730.69;10256051;28;20044;-66
2022/05/24 18:33:29;;;;;;;3.42;0.50;;;;;;;15.31;100.00;100746.34;10271402;28;20375;-66
2022/05/24 18:38:26;;;;;;;4.45;0.98;;;;;;;15.30;100.00;100742.00;10262445;28;20049;-66
2022/05/24 18:43:25;;;;;;;2.90;0.50;;;;;;;15.17;100.00;100737.69;10258956;28;20119;-66
2022/05/24 18:48:22;;;;;;;7.20;1.52;;;;;;;15.14;100.00;100738.38;10246965;28;20037;-66
2022/05/24 18:53:19;;;;;;;1.95;0.70;;;;;;;15.10;100.00;100754.00;10256182;28;20069;-66
2022/05/24 18:58:15;;;;;;;1.45;0.50;;;;;;;15.02;100.00;100763.19;10255789;28;20045;-66
2022/05/24 19:03:12;;;;;;;3.40;1.50;;;;;;;14.89;100.00;100774.22;10229758;28;20094;-66
2022/05/24 19:08:09;;;;;;;5.68;2.17;;;;;;;14.91;100.00;100774.66;10252330;28;20410;-66
2022/05/24 19:13:05;;;;;;;1.98;0.57;;;;;;;14.93;100.00;100788.09;10263744;28;20615;-66
2022/05/24 19:18:03;;;;;;;4.32;0.68;;;;;;;14.85;100.00;100798.09;10269076;28;20405;-66
2022/05/24 19:23:00;;;;;;;2.70;1.00;;;;;;;14.78;100.00;100805.28;10269278;28;20090;-66
2022/05/24 19:27:57;;;;;;;2.20;0.60;;;;;;;14.80;100.00;100803.81;10254403;28;20435;-66
2022/05/24 19:32:54;;;;;;;2.92;0.63;;;;;;;14.69;100.00;100816.41;10258498;28;20096;-67
2022/05/24 19:37:50;;;;;;;2.55;0.57;;;;;;;14.65;100.00;100815.50;10238743;28;20045;-66
2022/05/24 19:42:47;;;;;;;3.15;1.02;;;;;;;14.67;100.00;100818.72;10270062;28;20044;-66
2022/05/24 19:47:43;;;;;;;8.10;1.08;;;;;;;14.59;100.00;100816.88;10247292;28;20427;-69
2022/05/24 19:52:41;;;;;;;4.15;1.52;;;;;;;14.53;100.00;100822.56;10261770;28;20045;-68
2022/05/24 19:57:38;;;;;;;3.35;0.88;;;;;;;14.49;100.00;100821.66;10243050;28;20079;-69
2022/05/24 20:02:35;;;;;;;3.85;1.77;;;;;;;14.45;100.00;100831.72;10263294;28;20116;-66
2022/05/24 20:07:31;;;;;;;3.72;1.20;;;;;;;14.42;100.00;100835.16;10258271;28;20689;-66
2022/05/24 20:12:27;;;;;;;2.60;1.00;;;;;;;14.36;100.00;100839.25;10257356;28;20075;-65
2022/05/24 20:17:24;;;;;;;5.47;1.30;;;;;;;14.32;100.00;100852.91;10257616;28;20041;-65
2022/05/24 20:22:20;;;;;;;2.33;0.90;;;;;;;14.22;100.00;100852.53;10263695;28;20140;-66
2022/05/24 20:27:21;;;;;;;7.15;1.30;;;;;;;14.20;100.00;100854.81;10258585;28;20056;-65
2022/05/24 20:32:17;;;;;;;5.00;1.33;;;;;;;14.12;100.00;100850.22;10259889;28;20049;-66
2022/05/24 20:37:17;;;;;;;4.15;1.60;;;;;;;14.07;100.00;100863.03;10262033;28;20041;-66
2022/05/24 20:42:17;;;;;;;4.03;1.45;;;;;;;14.03;100.00;100859.34;10263513;28;20560;-66
2022/05/24 20:47:13;;;;;;;5.63;1.77;;;;;;;13.89;100.00;100861.56;10258803;28;20064;-66
2022/05/24 20:52:11;;;;;;;4.35;1.48;;;;;;;13.82;100.00;100875.06;10246702;28;20541;-66
2022/05/24 20:57:08;;;;;;;7.13;1.83;;;;;;;13.81;100.00;100876.19;10256482;28;20470;-66
2022/05/24 21:08:14;;;;;;;3.22;1.23;;;;;;;13.79;100.00;100878.47;10255199;28;20053;-66
2022/05/24 21:13:14;;;;;;;4.70;1.48;;;;;;;13.79;100.00;100883.97;10276683;28;20399;-65
2022/05/24 21:18:10;;;;;;;4.57;1.20;;;;;;;13.73;100.00;100882.56;10260316;28;20049;-66
2022/05/24 21:23:07;;;;;;;4.95;1.50;;;;;;;13.61;100.00;100884.09;10278674;28;20430;-65
2022/05/24 21:28:15;;;;;;;4.10;1.40;;;;;;;13.50;100.00;100888.38;10276282;28;20041;-64
2022/05/24 21:33:22;;;;;;;3.63;1.55;;;;;;;13.44;100.00;100895.22;10269328;28;20088;-64
2022/05/24 21:38:22;;;;;;;4.82;1.17;;;;;;;13.44;100.00;100897.97;10267520;28;20098;-64
2022/05/24 21:43:19;;;;;;;5.80;1.50;;;;;;;13.38;100.00;100899.28;10275078;28;20068;-64
2022/05/24 21:48:24;;;;;;;5.15;1.70;;;;;;;13.31;100.00;100908.03;10271336;28;20041;-64
2022/05/24 21:53:23;;;;;;;4.75;1.40;;;;;;;13.30;100.00;100911.09;10275039;28;20041;-66
2022/05/24 21:58:20;;;;;;;4.40;1.42;;;;;;;13.25;100.00;100915.63;10251581;28;20041;-66
2022/05/24 22:03:21;;;;;;;4.28;2.00;;;;;;;13.28;100.00;100921.63;10275277;28;20094;-66
2022/05/24 22:08:18;;;;;;;4.40;1.50;;;;;;;13.34;100.00;100923.03;10266726;28;20080;-67
2022/05/24 22:13:17;;;;;;;5.72;1.30;;;;;;;13.47;100.00;100924.75;10275326;28;20517;-66
2022/05/24 22:18:15;;;;;;;4.28;1.77;;;;;;;13.58;100.00;100931.47;10269920;28;20045;-66
2022/05/24 22:23:11;;;;;;;5.78;2.42;;;;;;;13.65;100.00;100930.94;10275002;28;20040;-64
2022/05/24 22:28:08;;;;;;;4.63;1.58;;;;;;;13.67;100.00;100939.66;10257979;28;20049;-64
2022/05/24 22:33:06;;;;;;;4.25;1.48;;;;;;;13.77;100.00;100935.72;10275343;28;20037;-65
2022/05/24 22:38:03;;;;;;;4.05;1.50;;;;;;;13.88;100.00;100932.22;10228646;28;20038;-65
2022/05/24 22:43:01;;;;;;;4.55;1.35;;;;;;;13.95;100.00;100942.69;10272455;28;20048;-64
2022/05/24 22:47:58;;;;;;;5.45;1.75;;;;;;;13.90;100.00;100945.63;10253648;28;20060;-63
2022/05/24 22:52:54;;;;;;;4.85;1.10;;;;;;;13.95;100.00;100952.88;10274461;28;20114;-63
2022/05/24 22:57:51;;;;;;;3.13;1.45;;;;;;;13.89;100.00;100955.81;10261177;28;20087;-63
2022/05/24 23:02:48;;;;;;;4.95;1.80;;;;;;;13.95;100.00;100964.69;10264179;28;20045;-63
2022/05/24 23:07:45;;;;;;;4.15;1.60;;;;;;;13.97;100.00;100959.66;10257815;28;20033;-63
2022/05/24 23:12:41;;;;;;;3.97;1.77;;;;;;;13.95;100.00;100963.84;10274389;28;20049;-63
2022/05/24 23:17:38;;;;;;;4.43;2.10;;;;;;;13.87;100.00;100971.03;10260454;28;20041;-63
2022/05/24 23:22:37;;;;;;;5.63;2.20;;;;;;;13.83;100.00;100973.66;10274234;28;20087;-63
2022/05/24 23:27:34;;;;;;;4.80;2.15;;;;;;;13.78;100.00;100975.78;10267360;28;20050;-64
2022/05/24 23:32:30;;;;;;;4.53;2.13;;;;;;;13.74;100.00;100967.41;10273665;28;20091;-64
2022/05/24 23:37:27;;;;;;;3.80;2.13;;;;;;;13.64;100.00;100971.31;10268603;28;20556;-64
2022/05/24 23:42:24;;;;;;;3.70;2.00;;;;;;;13.61;100.00;100971.22;10273311;28;20057;-64
2022/05/24 23:47:20;;;;;;;5.10;2.55;;;;;;;13.62;100.00;100981.88;10261939;28;20445;-63
2022/05/24 23:52:17;;;;;;;4.85;3.22;;;;;;;13.60;100.00;100980.56;10272783;28;20131;-64
2022/05/24 23:57:14;;;;;;;4.50;2.40;;;;;;;13.56;100.00;100985.94;10262732;28;20068;-65
